Time;durP1;ratioP1;P1;durP2;ratioP2;P2;SDS_P1;SDS_P2;PMS_P1;PMS_P2;Temp;Humidity;BMP_temperature;BMP_pressure;BME280_temperature;BME280_humidity;BME280_pressure;Samples;Min_cycle;Max_cycle;Signal;HPM_P1;HPM_P2
2022/06/17 00:00:26;;;;;;;0.00;0.00;;;14.60;99.90;;;;;;5019158;28;20049;-60
2022/06/17 00:02:55;;;;;;;0.00;0.00;;;14.40;99.90;;;;;;4981087;28;1109940;-61
2022/06/17 00:05:21;;;;;;;0.00;0.00;;;14.40;99.90;;;;;;5019604;28;20046;-60
2022/06/17 00:07:47;;;;;;;0.00;0.00;;;14.40;99.90;;;;;;5019937;28;20526;-60
2022/06/17 00:10:23;;;;;;;0.00;0.00;;;14.40;99.90;;;;;;5020689;28;20053;-60
2022/06/17 00:12:49;;;;;;;0.00;0.00;;;14.40;99.90;;;;;;5020188;28;20100;-60
2022/06/17 00:15:15;;;;;;;0.00;0.00;;;14.40;99.90;;;;;;5019748;28;20395;-60
2022/06/17 00:17:48;;;;;;;0.00;0.00;;;14.30;99.90;;;;;;5020987;28;20045;-60
2022/06/17 00:20:17;;;;;;;0.00;0.00;;;14.30;99.90;;;;;;5019580;28;20559;-59
2022/06/17 00:22:45;;;;;;;0.00;0.00;;;14.30;99.90;;;;;;5019665;28;20125;-59
2022/06/17 00:25:32;;;;;;;0.00;0.00;;;14.40;99.90;;;;;;5020148;28;20049;-60
2022/06/17 00:27:58;;;;;;;0.00;0.00;;;14.40;99.90;;;;;;5019327;28;20050;-59
2022/06/17 00:30:27;;;;;;;0.00;0.00;;;14.50;99.90;;;;;;5019507;28;20033;-60
2022/06/17 00:32:55;;;;;;;0.00;0.00;;;14.50;99.90;;;;;;5019598;28;20072;-60
2022/06/17 00:35:22;;;;;;;0.00;0.00;;;14.60;99.90;;;;;;5018063;28;20191;-60
2022/06/17 00:37:48;;;;;;;0.00;0.00;;;14.60;99.90;;;;;;5019655;28;20081;-60
2022/06/17 00:40:21;;;;;;;0.00;0.00;;;14.50;99.90;;;;;;5019610;28;20049;-59
2022/06/17 00:42:47;;;;;;;0.00;0.00;;;14.60;99.90;;;;;;5019184;28;20033;-60
2022/06/17 00:45:20;;;;;;;0.00;0.00;;;14.50;99.90;;;;;;5024698;28;20492;-60
2022/06/17 00:48:12;;;;;;;0.00;0.00;;;14.60;99.90;;;;;;5024166;28;20037;-61
2022/06/17 00:51:05;;;;;;;0.00;0.00;;;14.60;99.90;;;;;;5018577;28;20183;-61
2022/06/17 00:53:55;;;;;;;0.00;0.00;;;14.60;99.90;;;;;;5018732;28;20041;-60
2022/06/17 00:56:35;;;;;;;0.00;0.00;;;14.60;99.90;;;;;;5017347;28;20052;-59
2022/06/17 00:59:09;;;;;;;0.00;0.00;;;14.60;99.90;;;;;;5018398;28;20041;-60
2022/06/17 01:01:41;;;;;;;;;;;14.50;99.90;;;;;;5019547;28;20562;-60
2022/06/17 01:04:10;;;;;;;0.00;0.00;;;14.40;99.90;;;;;;5018339;28;19967;-60
2022/06/17 01:06:40;;;;;;;0.00;0.00;;;14.30;99.90;;;;;;5018413;28;20042;-60
2022/06/17 01:12:04;;;;;;;0.00;0.00;;;14.20;99.90;;;;;;5018806;28;20401;-59
2022/06/17 01:14:31;;;;;;;0.10;0.10;;;14.20;99.90;;;;;;5018738;28;20569;-61
2022/06/17 01:16:58;;;;;;;0.00;0.00;;;14.10;99.90;;;;;;5018950;28;20037;-60
2022/06/17 01:19:45;;;;;;;0.00;0.00;;;14.10;99.90;;;;;;5017277;28;20055;-60
2022/06/17 01:22:24;;;;;;;0.00;0.00;;;14.10;99.90;;;;;;5019116;28;20060;-60
2022/06/17 01:24:53;;;;;;;0.10;0.00;;;14.10;99.90;;;;;;5018578;28;20041;-60
2022/06/17 01:27:22;;;;;;;0.00;0.00;;;14.10;99.90;;;;;;5018911;28;20087;-60
2022/06/17 01:29:48;;;;;;;0.00;0.00;;;13.90;99.90;;;;;;5018856;28;20137;-60
2022/06/17 01:32:19;;;;;;;0.20;0.17;;;14.10;99.90;;;;;;5018560;28;20056;-60
2022/06/17 01:34:45;;;;;;;0.00;0.00;;;14.20;99.90;;;;;;5018557;28;20088;-59
2022/06/17 01:37:12;;;;;;;0.00;0.00;;;14.20;99.90;;;;;;5019007;28;20079;-60
2022/06/17 01:39:40;;;;;;;0.00;0.00;;;14.20;99.90;;;;;;5017398;28;20500;-60
2022/06/17 01:42:07;;;;;;;0.00;0.00;;;14.20;99.90;;;;;;5018824;28;20146;-60
2022/06/17 01:44:35;;;;;;;0.00;0.00;;;14.20;99.90;;;;;;5019824;28;20042;-60
2022/06/17 01:47:05;;;;;;;0.00;0.00;;;14.30;99.90;;;;;;5028594;28;20056;-60
2022/06/17 01:49:39;;;;;;;0.00;0.00;;;14.30;99.90;;;;;;5037439;28;20041;-60
2022/06/17 01:52:08;;;;;;;;;;;14.30;99.90;;;;;;5038439;28;20037;-60
2022/06/17 01:54:45;;;;;;;0.00;0.00;;;14.30;99.90;;;;;;5037434;28;19921;-60
2022/06/17 01:57:16;;;;;;;0.00;0.00;;;14.20;99.90;;;;;;5038880;28;20246;-60
2022/06/17 01:59:51;;;;;;;0.00;0.00;;;14.20;99.90;;;;;;5038928;28;20120;-58
2022/06/17 02:02:18;;;;;;;0.00;0.00;;;14.20;99.90;;;;;;5038047;28;20045;-59
2022/06/17 02:04:50;;;;;;;0.00;0.00;;;14.20;99.90;;;;;;5037985;28;20439;-59
2022/06/17 02:07:30;;;;;;;0.00;0.00;;;14.20;99.90;;;;;;5038182;28;20142;-60
2022/06/17 02:09:56;;;;;;;0.00;0.00;;;14.20;99.90;;;;;;5040302;28;20048;-59
2022/06/17 02:12:24;;;;;;;0.00;0.00;;;14.10;99.90;;;;;;5042087;28;20037;-59
2022/06/17 02:14:53;;;;;;;0.00;0.00;;;14.20;99.90;;;;;;5041928;28;20049;-59
2022/06/17 02:17:20;;;;;;;0.00;0.00;;;14.20;99.90;;;;;;5042083;28;20040;-60
2022/06/17 02:19:46;;;;;;;0.00;0.00;;;14.10;99.90;;;;;;5041501;28;20133;-60
2022/06/17 02:22:32;;;;;;;0.00;0.00;;;14.10;99.90;;;;;;5042077;28;20523;-60
2022/06/17 02:25:01;;;;;;;0.00;0.00;;;14.10;99.90;;;;;;5041612;28;20396;-59
2022/06/17 02:27:27;;;;;;;0.00;0.00;;;14.00;99.90;;;;;;5041576;28;20601;-60
2022/06/17 02:29:54;;;;;;;0.00;0.00;;;14.10;99.90;;;;;;5041359;28;20170;-59
2022/06/17 02:32:20;;;;;;;0.00;0.00;;;14.00;99.90;;;;;;5041720;28;20041;-60
2022/06/17 02:35:34;;;;;;;0.00;0.00;;;14.00;99.90;;;;;;5041262;28;20531;-59
2022/06/17 02:37:59;;;;;;;0.00;0.00;;;13.90;99.90;;;;;;5039327;28;20045;-60
2022/06/17 02:40:30;;;;;;;0.00;0.00;;;13.90;99.90;;;;;;5041679;28;20128;-61
2022/06/17 02:42:58;;;;;;;0.00;0.00;;;13.90;99.90;;;;;;5041467;28;20081;-59
2022/06/17 02:45:26;;;;;;;0.00;0.00;;;13.90;99.90;;;;;;5035534;28;20041;-60
2022/06/17 02:47:53;;;;;;;0.00;0.00;;;14.00;99.90;;;;;;5025780;28;20077;-60
2022/06/17 02:50:22;;;;;;;0.00;0.00;;;13.90;99.90;;;;;;5019887;28;20084;-60
2022/06/17 02:52:49;;;;;;;0.00;0.00;;;13.80;99.90;;;;;;5021737;28;20076;-61
2022/06/17 02:55:32;;;;;;;0.00;0.00;;;13.80;99.90;;;;;;5022246;28;20052;-60
2022/06/17 02:58:10;;;;;;;0.00;0.00;;;13.80;99.90;;;;;;5021050;28;20085;-60
2022/06/17 03:00:36;;;;;;;0.00;0.00;;;13.80;99.90;;;;;;5021405;28;20128;-60
2022/06/17 03:03:05;;;;;;;0.00;0.00;;;13.70;99.90;;;;;;5020386;28;20129;-60
2022/06/17 03:05:35;;;;;;;0.00;0.00;;;13.80;99.90;;;;;;5020544;28;20060;-60
2022/06/17 03:08:06;;;;;;;0.00;0.00;;;13.70;99.90;;;;;;5020650;28;20778;-60
2022/06/17 03:10:37;;;;;;;0.00;0.00;;;13.70;99.90;;;;;;5020684;28;20049;-60
2022/06/17 03:13:28;;;;;;;0.00;0.00;;;13.70;99.90;;;;;;5021435;28;20060;-60
2022/06/17 03:15:58;;;;;;;0.00;0.00;;;13.90;99.90;;;;;;5020548;28;20449;-61
2022/06/17 03:18:24;;;;;;;0.00;0.00;;;13.70;99.90;;;;;;5020072;28;20296;-60
2022/06/17 03:20:50;;;;;;;0.00;0.00;;;13.70;99.90;;;;;;5020890;28;20041;-60
2022/06/17 03:23:26;;;;;;;0.00;0.00;;;13.70;99.90;;;;;;5020335;28;20331;-60
2022/06/17 03:26:03;;;;;;;0.00;0.00;;;13.70;99.90;;;;;;5020516;28;20495;-60
2022/06/17 03:28:34;;;;;;;0.00;0.00;;;13.70;99.90;;;;;;5021041;28;20056;-60
2022/06/17 03:31:22;;;;;;;0.28;0.20;;;13.80;99.90;;;;;;5020429;28;20049;-60
2022/06/17 03:34:11;;;;;;;0.00;0.00;;;13.80;99.90;;;;;;5019046;28;20057;-59
2022/06/17 03:36:42;;;;;;;0.00;0.00;;;13.80;99.90;;;;;;5020971;28;20124;-59
2022/06/17 03:39:18;;;;;;;0.10;0.10;;;13.80;99.90;;;;;;5019813;28;20049;-60
2022/06/17 03:41:50;;;;;;;0.70;0.38;;;13.80;99.90;;;;;;5020693;28;20049;-59
2022/06/17 03:44:19;;;;;;;0.45;0.20;;;13.80;99.90;;;;;;5022125;28;20557;-60
2022/06/17 03:47:23;;;;;;;0.10;0.10;;;13.90;99.90;;;;;;5029101;28;20507;-59
2022/06/17 03:50:00;;;;;;;0.00;0.00;;;14.00;99.90;;;;;;5019396;28;20061;-60
2022/06/17 03:52:52;;;;;;;0.00;0.00;;;14.10;99.90;;;;;;5020750;28;20041;-59
2022/06/17 03:55:19;;;;;;;0.00;0.00;;;14.20;99.90;;;;;;5020455;28;20038;-60
2022/06/17 03:57:48;;;;;;;0.00;0.00;;;14.30;99.90;;;;;;5020860;28;20084;-60
2022/06/17 04:00:28;;;;;;;0.00;0.00;;;14.40;99.90;;;;;;5020887;28;20103;-60
2022/06/17 04:02:56;;;;;;;0.25;0.10;;;14.50;99.90;;;;;;5019199;28;20067;-60
2022/06/17 04:05:22;;;;;;;0.20;0.03;;;14.60;99.90;;;;;;5019310;28;20479;-60
2022/06/17 04:07:49;;;;;;;0.10;0.10;;;14.60;99.90;;;;;;5020282;28;20303;-60
2022/06/17 04:10:24;;;;;;;0.10;0.10;;;14.70;99.90;;;;;;5020668;28;20411;-60
2022/06/17 04:12:52;;;;;;;0.13;0.00;;;14.90;99.90;;;;;;5018548;28;20049;-60
2022/06/17 04:15:34;;;;;;;0.00;0.00;;;15.10;99.90;;;;;;5019688;28;20144;-60
2022/06/17 04:18:00;;;;;;;0.03;0.03;;;15.10;99.90;;;;;;5019085;28;20052;-61
2022/06/17 04:20:39;;;;;;;0.10;0.10;;;15.10;99.90;;;;;;5019301;28;20072;-60
2022/06/17 04:23:19;;;;;;;0.15;0.10;;;15.00;99.90;;;;;;5019776;28;20068;-60
2022/06/17 04:25:47;;;;;;;0.00;0.00;;;14.90;99.90;;;;;;5020104;28;20048;-60
2022/06/17 04:28:18;;;;;;;0.68;0.43;;;14.90;99.90;;;;;;5020434;28;20042;-60
2022/06/17 04:30:52;;;;;;;0.00;0.00;;;15.00;99.90;;;;;;5018969;28;20055;-59
2022/06/17 04:33:26;;;;;;;0.00;0.00;;;14.80;99.90;;;;;;5018806;28;20719;-60
2022/06/17 04:36:07;;;;;;;0.00;0.00;;;15.20;99.90;;;;;;5019472;28;20412;-61
2022/06/17 04:38:45;;;;;;;0.22;0.00;;;15.40;99.90;;;;;;5019267;28;20037;-60
2022/06/17 04:41:14;;;;;;;0.00;0.00;;;15.50;99.90;;;;;;5020101;28;20183;-60
2022/06/17 04:43:47;;;;;;;0.00;0.00;;;15.60;99.90;;;;;;5018626;28;20042;-60
2022/06/17 04:46:27;;;;;;;0.00;0.00;;;15.70;99.90;;;;;;5031207;28;20049;-59
2022/06/17 04:48:57;;;;;;;0.20;0.20;;;15.70;99.90;;;;;;5017698;28;20049;-59
2022/06/17 04:51:25;;;;;;;0.08;0.08;;;15.80;99.90;;;;;;5019214;28;20045;-60
2022/06/17 04:53:52;;;;;;;0.30;0.28;;;15.80;99.90;;;;;;5019193;28;20052;-59
2022/06/17 04:56:27;;;;;;;0.17;0.17;;;15.70;99.90;;;;;;5017088;28;20546;-60
2022/06/17 04:58:52;;;;;;;0.10;0.00;;;15.70;99.90;;;;;;5019648;28;20380;-59
2022/06/17 05:01:20;;;;;;;0.00;0.00;;;15.70;99.90;;;;;;5019042;28;20051;-60
2022/06/17 05:03:45;;;;;;;0.08;0.08;;;15.70;99.90;;;;;;5017857;28;20060;-60
2022/06/17 05:06:11;;;;;;;0.55;0.22;;;15.70;99.90;;;;;;5019205;28;20041;-59
2022/06/17 05:08:42;;;;;;;0.00;0.00;;;15.70;99.90;;;;;;5019115;28;20048;-59
2022/06/17 05:11:30;;;;;;;0.00;0.00;;;15.70;99.90;;;;;;5019135;28;20304;-59
2022/06/17 05:14:14;;;;;;;0.30;0.10;;;15.60;99.90;;;;;;5019075;28;20566;-57
2022/06/17 05:16:39;;;;;;;0.00;0.00;;;15.70;99.90;;;;;;5018281;28;20396;-59
2022/06/17 05:19:05;;;;;;;0.13;0.10;;;15.80;99.90;;;;;;5018097;28;20042;-59
2022/06/17 05:21:31;;;;;;;0.00;0.00;;;15.70;99.90;;;;;;5018664;28;20045;-60
2022/06/17 05:23:58;;;;;;;0.00;0.00;;;15.80;99.90;;;;;;5018483;28;20049;-59
2022/06/17 05:26:24;;;;;;;0.17;0.10;;;15.70;99.90;;;;;;5017926;28;20160;-59
2022/06/17 05:28:50;;;;;;;0.35;0.10;;;15.80;99.90;;;;;;5018774;28;20180;-59
2022/06/17 05:31:22;;;;;;;0.80;0.20;;;15.70;99.90;;;;;;5018644;28;20069;-59
2022/06/17 05:33:48;;;;;;;0.00;0.00;;;15.70;99.90;;;;;;5017594;28;20123;-59
2022/06/17 05:36:15;;;;;;;0.82;0.82;;;15.70;99.90;;;;;;5019332;28;20045;-60
2022/06/17 05:38:41;;;;;;;0.43;0.20;;;15.70;99.90;;;;;;5018931;28;20060;-60
2022/06/17 05:41:09;;;;;;;0.00;0.00;;;15.70;99.90;;;;;;5018495;28;20595;-59
2022/06/17 05:43:35;;;;;;;0.00;0.00;;;15.70;99.90;;;;;;5016780;28;20642;-60
2022/06/17 05:46:01;;;;;;;0.00;0.00;;;15.70;99.90;;;;;;5029617;28;20144;-60
2022/06/17 05:48:26;;;;;;;0.75;0.38;;;15.70;99.90;;;;;;5017724;28;20068;-59
2022/06/17 05:50:52;;;;;;;0.10;0.08;;;15.70;99.90;;;;;;5017966;28;20041;-60
2022/06/17 05:53:18;;;;;;;0.00;0.00;;;15.80;99.90;;;;;;5018453;28;20111;-59
2022/06/17 05:55:44;;;;;;;1.38;0.10;;;15.80;99.90;;;;;;5018382;28;20396;-59
2022/06/17 05:58:10;;;;;;;0.20;0.20;;;15.80;99.90;;;;;;5018659;28;20112;-59
2022/06/17 06:00:36;;;;;;;0.45;0.25;;;15.90;99.90;;;;;;5017508;28;20160;-60
2022/06/17 06:03:05;;;;;;;0.00;0.00;;;16.00;99.90;;;;;;5017665;28;20457;-59
2022/06/17 06:05:33;;;;;;;0.38;0.38;;;16.10;99.90;;;;;;5018699;28;20068;-59
2022/06/17 06:07:59;;;;;;;0.00;0.00;;;16.10;99.90;;;;;;5017541;28;20103;-59
2022/06/17 06:10:26;;;;;;;0.00;0.00;;;16.20;99.90;;;;;;5018303;28;20128;-59
2022/06/17 06:13:00;;;;;;;0.00;0.00;;;16.30;99.90;;;;;;5018469;28;20073;-60
2022/06/17 06:15:39;;;;;;;0.10;0.10;;;16.30;99.90;;;;;;5017837;28;20053;-59
2022/06/17 06:18:12;;;;;;;0.28;0.28;;;16.40;99.90;;;;;;5017378;28;20047;-59
2022/06/17 06:20:37;;;;;;;0.10;0.10;;;16.50;99.90;;;;;;5018354;28;20122;-59
2022/06/17 06:23:03;;;;;;;0.00;0.00;;;16.40;99.90;;;;;;5017111;28;20492;-60
2022/06/17 06:25:29;;;;;;;0.00;0.00;;;16.50;99.90;;;;;;5033072;28;20041;-59
2022/06/17 06:27:55;;;;;;;0.00;0.00;;;16.60;99.90;;;;;;5018381;28;20038;-59
2022/06/17 06:30:27;;;;;;;0.10;0.10;;;16.60;99.90;;;;;;5018024;28;20037;-59
2022/06/17 06:32:56;;;;;;;0.10;0.10;;;16.60;99.90;;;;;;5017953;28;20111;-59
2022/06/17 06:35:24;;;;;;;0.20;0.10;;;16.60;99.90;;;;;;5017885;28;20224;-59
2022/06/17 06:37:50;;;;;;;0.38;0.25;;;16.70;99.90;;;;;;5018284;28;20095;-58
2022/06/17 06:40:17;;;;;;;0.00;0.00;;;16.90;99.90;;;;;;5017317;28;20049;-58
2022/06/17 06:42:43;;;;;;;0.10;0.10;;;16.70;99.90;;;;;;5018148;28;20420;-59
2022/06/17 06:45:13;;;;;;;0.00;0.00;;;16.70;99.90;;;;;;5021324;28;20143;-59
2022/06/17 06:47:39;;;;;;;0.00;0.00;;;16.70;99.90;;;;;;5022358;28;20038;-59
2022/06/17 06:50:05;;;;;;;0.40;0.20;;;16.80;99.90;;;;;;5016599;28;20049;-59
2022/06/17 06:52:30;;;;;;;0.00;0.00;;;16.80;99.90;;;;;;5018190;28;20565;-60
2022/06/17 06:54:56;;;;;;;0.00;0.00;;;16.80;99.90;;;;;;5019836;28;20053;-59
2022/06/17 06:57:22;;;;;;;0.00;0.00;;;16.90;99.90;;;;;;5020537;28;20042;-61
2022/06/17 06:59:47;;;;;;;0.10;0.10;;;16.80;99.90;;;;;;5021245;28;20132;-60
2022/06/17 07:02:13;;;;;;;0.00;0.00;;;16.70;99.90;;;;;;5021843;28;20045;-60
2022/06/17 07:04:38;;;;;;;0.10;0.10;;;17.00;99.90;;;;;;5019732;28;20080;-60
2022/06/17 07:07:05;;;;;;;0.00;0.00;;;17.00;99.90;;;;;;5020969;28;20523;-60
2022/06/17 07:09:30;;;;;;;0.13;0.13;;;17.10;99.90;;;;;;5019467;28;20037;-60
2022/06/17 07:11:56;;;;;;;0.00;0.00;;;17.20;99.90;;;;;;5020698;28;20114;-59
2022/06/17 07:14:22;;;;;;;0.05;0.05;;;17.30;99.90;;;;;;5020343;28;20052;-60
2022/06/17 07:16:48;;;;;;;0.00;0.00;;;17.30;99.90;;;;;;5021188;28;20037;-59
2022/06/17 07:19:17;;;;;;;0.00;0.00;;;17.40;99.90;;;;;;5020640;28;20041;-60
2022/06/17 07:21:43;;;;;;;0.70;0.22;;;17.40;99.90;;;;;;5021496;28;20455;-59
2022/06/17 07:24:08;;;;;;;0.10;0.10;;;17.60;99.90;;;;;;5020124;28;20038;-59
2022/06/17 07:26:34;;;;;;;0.30;0.10;;;17.60;99.90;;;;;;5020896;28;20045;-60
2022/06/17 07:29:00;;;;;;;0.10;0.03;;;17.70;99.90;;;;;;5020839;28;20110;-59
2022/06/17 07:31:28;;;;;;;0.28;0.22;;;17.80;99.90;;;;;;5019901;28;20123;-59
2022/06/17 07:33:56;;;;;;;0.40;0.20;;;17.90;99.90;;;;;;5020133;28;20049;-58
2022/06/17 07:41:56;;;;;;;0.22;0.20;;;18.20;99.90;;;;;;5019912;28;20704;-59
2022/06/17 07:44:22;;;;;;;0.32;0.22;;;18.20;99.90;;;;;;5022261;28;20048;-59
2022/06/17 07:46:48;;;;;;;0.20;0.15;;;18.20;99.90;;;;;;5028505;28;20535;-59
2022/06/17 07:49:13;;;;;;;0.63;0.30;;;18.30;99.90;;;;;;5020699;28;20618;-60
2022/06/17 07:51:40;;;;;;;0.00;0.00;;;18.40;99.90;;;;;;5020755;28;20644;-59
2022/06/17 07:54:05;;;;;;;0.08;0.08;;;18.50;99.90;;;;;;5019789;28;20357;-60
2022/06/17 07:56:31;;;;;;;0.00;0.00;;;18.50;99.90;;;;;;5020422;28;20049;-61
2022/06/17 07:58:58;;;;;;;0.22;0.10;;;18.60;99.90;;;;;;5020462;28;20049;-59
2022/06/17 08:01:24;;;;;;;0.15;0.10;;;18.60;99.90;;;;;;5017699;28;20534;-60
2022/06/17 08:03:50;;;;;;;0.10;0.10;;;18.70;99.90;;;;;;5020107;28;20120;-61
2022/06/17 08:06:16;;;;;;;0.10;0.10;;;18.70;99.90;;;;;;5024926;28;20037;-59
2022/06/17 08:08:43;;;;;;;0.03;0.03;;;18.70;99.90;;;;;;5029060;28;20049;-59
2022/06/17 08:11:10;;;;;;;0.00;0.00;;;18.90;99.90;;;;;;5018483;28;20050;-60
2022/06/17 08:13:35;;;;;;;0.10;0.10;;;19.00;99.90;;;;;;5020173;28;20049;-63
2022/06/17 08:16:06;;;;;;;0.00;0.00;;;19.30;99.90;;;;;;5034042;28;20126;-58
2022/06/17 08:18:32;;;;;;;0.00;0.00;;;19.70;99.90;;;;;;5018379;28;20126;-71
2022/06/17 08:20:58;;;;;;;1.02;0.32;;;19.90;99.90;;;;;;5019522;28;20071;-71
2022/06/17 08:23:24;;;;;;;0.28;0.10;;;20.00;99.90;;;;;;5019373;28;20125;-70
2022/06/17 08:25:50;;;;;;;3.72;1.25;;;20.40;99.90;;;;;;5019908;28;20363;-71
2022/06/17 08:28:17;;;;;;;0.20;0.13;;;20.20;99.90;;;;;;5018891;28;20042;-70
2022/06/17 08:30:47;;;;;;;0.13;0.13;;;20.40;99.90;;;;;;5020259;28;20102;-65
2022/06/17 08:33:13;;;;;;;0.00;0.00;;;20.40;99.90;;;;;;5018792;28;20210;-81
2022/06/17 08:35:43;;;;;;;0.00;0.00;;;20.70;99.90;;;;;;5019767;28;20048;-71
2022/06/17 08:38:16;;;;;;;0.57;0.40;;;20.70;99.90;;;;;;5019490;28;20499;-72
2022/06/17 08:41:13;;;;;;;0.20;0.10;;;20.80;99.90;;;;;;5020186;28;20108;-67
2022/06/17 08:44:04;;;;;;;0.00;0.00;;;21.00;99.90;;;;;;5019736;28;20499;-67
2022/06/17 08:46:44;;;;;;;0.32;0.20;;;21.40;99.90;;;;;;5027817;28;20071;-69
2022/06/17 08:49:10;;;;;;;0.10;0.10;;;21.80;99.90;;;;;;5039203;28;20125;-70
2022/06/17 08:52:01;;;;;;;0.08;0.08;;;21.90;99.90;;;;;;5038417;28;20057;-71
2022/06/17 08:54:44;;;;;;;0.40;0.28;;;21.70;99.90;;;;;;5039426;28;20743;-71
2022/06/17 08:57:30;;;;;;;0.10;0.10;;;21.60;99.90;;;;;;5038851;28;20073;-71
2022/06/17 09:00:07;;;;;;;0.50;0.40;;;21.70;99.90;;;;;;5039526;28;20140;-68
2022/06/17 09:03:17;;;;;;;0.00;0.00;;;21.90;99.90;;;;;;5037752;28;20041;-70
2022/06/17 09:05:51;;;;;;;0.17;0.10;;;22.00;99.90;;;;;;5033060;28;20045;-70
2022/06/17 09:08:16;;;;;;;0.35;0.32;;;22.00;99.90;;;;;;5039320;28;20117;-71
2022/06/17 09:11:01;;;;;;;0.43;0.43;;;22.10;99.90;;;;;;5039887;28;20053;-70
2022/06/17 09:13:30;;;;;;;0.20;0.20;;;22.20;99.90;;;;;;5038772;28;20052;-69
2022/06/17 09:16:00;;;;;;;0.10;0.10;;;22.30;99.90;;;;;;5039109;28;20077;-69
2022/06/17 09:18:42;;;;;;;0.00;0.00;;;22.30;99.90;;;;;;5038355;28;20052;-70
2022/06/17 09:21:15;;;;;;;0.15;0.15;;;22.10;99.90;;;;;;5038979;28;20088;-70
2022/06/17 09:23:41;;;;;;;0.00;0.00;;;21.80;99.90;;;;;;5039501;28;20380;-70
2022/06/17 09:26:22;;;;;;;0.00;0.00;;;21.80;99.90;;;;;;5038028;28;20045;-69
2022/06/17 09:29:11;;;;;;;0.10;0.05;;;21.60;99.90;;;;;;5039105;28;20037;-70
2022/06/17 09:31:41;;;;;;;0.10;0.10;;;21.70;99.90;;;;;;5038895;28;20041;-71
2022/06/17 09:34:21;;;;;;;0.17;0.10;;;21.90;99.90;;;;;;5038552;28;20047;-69
2022/06/17 09:36:56;;;;;;;0.20;0.20;;;21.90;99.90;;;;;;5038216;28;20068;-70
2022/06/17 09:39:41;;;;;;;0.00;0.00;;;21.80;99.90;;;;;;5039046;28;20220;-71
2022/06/17 09:42:16;;;;;;;;;;;21.70;99.90;;;;;;5039009;28;20047;-71
2022/06/17 09:44:51;;;;;;;0.15;0.10;;;21.80;99.90;;;;;;5034857;28;19921;-69
2022/06/17 09:47:27;;;;;;;0.20;0.10;;;22.00;99.90;;;;;;5026711;28;20054;-69
2022/06/17 09:50:09;;;;;;;0.17;0.17;;;22.00;99.90;;;;;;5019127;28;20132;-69
2022/06/17 09:52:40;;;;;;;0.00;0.00;;;21.90;99.90;;;;;;5018919;28;20092;-70
2022/06/17 09:55:31;;;;;;;0.68;0.50;;;22.10;99.90;;;;;;5018139;28;20179;-69
2022/06/17 09:58:39;;;;;;;0.38;0.30;;;22.10;99.90;;;;;;5019096;28;20128;-69
2022/06/17 10:01:06;;;;;;;0.10;0.00;;;22.30;99.90;;;;;;5004821;28;20065;-70
2022/06/17 10:03:34;;;;;;;0.40;0.20;;;22.30;99.90;;;;;;5017277;28;20415;-69
2022/06/17 10:06:22;;;;;;;0.10;0.10;;;22.80;99.90;;;;;;5019098;28;20045;-72
2022/06/17 10:09:26;;;;;;;0.75;0.70;;;23.10;99.90;;;;;;5018363;28;20057;-70
2022/06/17 10:12:23;;;;;;;0.00;0.00;;;23.30;99.90;;;;;;5010894;28;20050;-72
2022/06/17 10:15:20;;;;;;;0.10;0.10;;;23.40;99.90;;;;;;5018568;28;20042;-70
2022/06/17 10:20:55;;;;;;;0.00;0.00;;;23.00;99.90;;;;;;5018556;28;20057;-71
2022/06/17 10:23:57;;;;;;;0.10;0.10;;;22.90;99.90;;;;;;5018896;28;20184;-70
2022/06/17 10:27:13;;;;;;;0.00;0.00;;;22.80;99.90;;;;;;5018660;28;20038;-70
2022/06/17 10:29:58;;;;;;;0.08;0.08;;;22.60;99.90;;;;;;5002191;28;20046;-69
2022/06/17 10:32:26;;;;;;;0.40;0.25;;;22.60;99.90;;;;;;5020847;28;20053;-70
2022/06/17 10:34:57;;;;;;;0.10;0.10;;;22.50;99.90;;;;;;5022350;28;20037;-72
2022/06/17 10:37:23;;;;;;;0.30;0.28;;;22.40;99.90;;;;;;5022507;28;20099;-71
2022/06/17 10:39:49;;;;;;;0.00;0.00;;;22.40;99.90;;;;;;5022551;28;20052;-71
2022/06/17 10:42:18;;;;;;;0.10;0.08;;;22.50;99.90;;;;;;5021895;28;20510;-63
2022/06/17 10:44:46;;;;;;;0.00;0.00;;;22.40;99.90;;;;;;5024814;28;20052;-70
2022/06/17 10:47:11;;;;;;;0.17;0.10;;;22.40;99.90;;;;;;5030850;28;20045;-70
2022/06/17 10:49:44;;;;;;;0.17;0.15;;;22.30;99.90;;;;;;5021005;28;20056;-70
2022/06/17 10:52:21;;;;;;;0.05;0.05;;;22.20;99.90;;;;;;5022205;28;20041;-70
2022/06/17 10:54:50;;;;;;;0.22;0.10;;;22.10;99.90;;;;;;5021899;28;20408;-68
2022/06/17 10:57:32;;;;;;;0.00;0.00;;;22.20;99.90;;;;;;5021867;28;20045;-71
2022/06/17 10:59:58;;;;;;;0.00;0.00;;;22.30;99.90;;;;;;5021728;28;20463;-70
2022/06/17 11:02:29;;;;;;;0.30;0.30;;;22.30;99.90;;;;;;5019996;28;20124;-70
2022/06/17 11:04:58;;;;;;;0.10;0.10;;;22.40;99.90;;;;;;5021935;28;20108;-70
2022/06/17 11:07:31;;;;;;;0.00;0.00;;;22.40;99.90;;;;;;5021784;28;20038;-71
2022/06/17 11:10:26;;;;;;;0.00;0.00;;;22.40;99.90;;;;;;5020879;28;20060;-69
2022/06/17 11:13:12;;;;;;;0.05;0.05;;;22.50;99.90;;;;;;5020481;28;20056;-70
2022/06/17 11:15:46;;;;;;;0.17;0.10;;;22.40;99.90;;;;;;5021439;28;20145;-70
2022/06/17 11:18:21;;;;;;;1.13;0.70;;;22.40;99.90;;;;;;5020106;28;20184;-69
2022/06/17 11:21:02;;;;;;;0.10;0.10;;;22.50;99.90;;;;;;5021386;28;20735;-70
2022/06/17 11:23:40;;;;;;;0.20;0.10;;;22.90;99.90;;;;;;5021465;28;20041;-69
2022/06/17 11:26:16;;;;;;;0.00;0.00;;;23.00;99.90;;;;;;5020445;28;20557;-69
2022/06/17 11:28:45;;;;;;;1.00;0.70;;;23.30;99.90;;;;;;5021598;28;20072;-59
2022/06/17 11:31:15;;;;;;;0.45;0.15;;;23.50;99.90;;;;;;5021361;28;20422;-70
2022/06/17 11:33:59;;;;;;;0.00;0.00;;;23.70;99.90;;;;;;5020785;28;20060;-70
2022/06/17 11:36:29;;;;;;;0.10;0.10;;;23.80;99.90;;;;;;5021040;28;20124;-68
2022/06/17 11:39:18;;;;;;;0.13;0.00;;;23.50;99.90;;;;;;5020644;28;20408;-70
2022/06/17 11:41:45;;;;;;;0.10;0.10;;;23.60;99.90;;;;;;5021237;28;20050;-71
2022/06/17 11:44:18;;;;;;;0.00;0.00;;;23.60;99.90;;;;;;5021737;28;20120;-71
2022/06/17 11:47:01;;;;;;;0.00;0.00;;;23.80;99.90;;;;;;5030222;28;20049;-71
2022/06/17 11:49:27;;;;;;;0.20;0.20;;;23.80;99.90;;;;;;5019679;28;20106;-71
2022/06/17 11:52:02;;;;;;;0.25;0.20;;;23.80;99.90;;;;;;5021089;28;20448;-72
2022/06/17 11:54:49;;;;;;;0.20;0.15;;;24.20;99.90;;;;;;5020551;28;20116;-71
2022/06/17 11:57:24;;;;;;;0.17;0.17;;;24.20;99.90;;;;;;5021155;28;20053;-70
2022/06/17 11:59:54;;;;;;;0.22;0.15;;;24.40;99.90;;;;;;5020868;28;20048;-71
2022/06/17 12:02:21;;;;;;;2.45;0.20;;;24.30;99.90;;;;;;5019229;28;20475;-69
2022/06/17 12:05:04;;;;;;;0.10;0.10;;;24.30;99.90;;;;;;5020619;28;20096;-70
2022/06/17 12:07:52;;;;;;;0.00;0.00;;;24.40;99.90;;;;;;5035697;28;20188;-70
2022/06/17 12:10:49;;;;;;;0.10;0.10;;;24.50;99.90;;;;;;5020401;28;20045;-70
2022/06/17 12:13:27;;;;;;;0.10;0.10;;;24.10;99.90;;;;;;5020809;28;20101;-64
2022/06/17 12:16:08;;;;;;;0.20;0.20;;;24.00;99.90;;;;;;5020316;28;20056;-70
2022/06/17 12:18:37;;;;;;;0.10;0.10;;;24.10;99.90;;;;;;5019578;28;20054;-71
2022/06/17 12:21:19;;;;;;;0.15;0.10;;;23.90;99.90;;;;;;5020083;28;20053;-70
2022/06/17 12:24:09;;;;;;;0.40;0.20;;;23.90;99.90;;;;;;5019974;28;20726;-70
2022/06/17 12:26:40;;;;;;;0.00;0.00;;;24.00;99.90;;;;;;5019072;28;20092;-63
2022/06/17 12:29:23;;;;;;;0.70;0.70;;;24.20;99.90;;;;;;5018967;28;20053;-63
2022/06/17 12:31:53;;;;;;;0.35;0.30;;;24.30;99.90;;;;;;5019252;28;20049;-63
2022/06/17 12:34:37;;;;;;;0.10;0.03;;;24.30;99.90;;;;;;5017569;28;20053;-63
2022/06/17 12:37:25;;;;;;;0.10;0.10;;;24.40;99.90;;;;;;5020041;28;20041;-63
2022/06/17 12:40:25;;;;;;;0.10;0.08;;;24.70;99.90;;;;;;5019152;28;20128;-63
2022/06/17 12:43:13;;;;;;;0.10;0.10;;;24.70;99.90;;;;;;5017624;28;20059;-63
2022/06/17 12:45:57;;;;;;;0.00;0.00;;;24.60;99.90;;;;;;5028521;28;20121;-63
2022/06/17 12:48:31;;;;;;;0.05;0.05;;;24.70;99.90;;;;;;5017671;28;20042;-63
2022/06/17 12:54:42;;;;;;;0.00;0.00;;;24.90;99.90;;;;;;5018496;28;20057;-63
2022/06/17 12:57:18;;;;;;;0.30;0.30;;;24.80;99.90;;;;;;5017649;28;20067;-64
2022/06/17 13:00:05;;;;;;;0.55;0.43;;;24.80;99.90;;;;;;5019614;28;20045;-63
2022/06/17 13:03:07;;;;;;;0.32;0.30;;;25.10;99.90;;;;;;5018875;28;20033;-63
2022/06/17 13:05:41;;;;;;;0.30;0.10;;;25.30;99.90;;;;;;5025345;28;20044;-59
2022/06/17 13:08:12;;;;;;;0.10;0.10;;;25.40;99.90;;;;;;5026054;28;20049;-64
2022/06/17 13:10:48;;;;;;;0.20;0.10;;;25.70;99.90;;;;;;5024661;28;20041;-63
2022/06/17 13:13:56;;;;;;;0.25;0.17;;;25.60;99.90;;;;;;5025146;28;20044;-57
2022/06/17 13:16:28;;;;;;;0.10;0.10;;;25.60;99.90;;;;;;5024492;28;20071;-76
2022/06/17 13:19:16;;;;;;;0.03;0.03;;;25.90;99.90;;;;;;5024532;28;20045;-73
2022/06/17 13:21:49;;;;;;;0.00;0.00;;;26.00;99.90;;;;;;5025182;28;20500;-77
2022/06/17 13:24:42;;;;;;;0.35;0.10;;;25.70;99.90;;;;;;5024726;28;20056;-78
2022/06/17 13:27:25;;;;;;;0.00;0.00;;;25.60;99.90;;;;;;5025657;28;20045;-77
2022/06/17 13:30:09;;;;;;;0.28;0.10;;;25.60;99.90;;;;;;5022653;28;20034;-77
2022/06/17 13:32:44;;;;;;;0.00;0.00;;;25.60;99.90;;;;;;5022933;28;20040;-79
2022/06/17 13:35:19;;;;;;;0.45;0.20;;;25.60;99.90;;;;;;5024290;28;20041;-79